Time;durP1;ratioP1;P1;durP2;ratioP2;P2;SDS_P1;SDS_P2;PMS_P1;PMS_P2;Temp;Humidity;BMP_temperature;BMP_pressure;BME280_temperature;BME280_humidity;BME280_pressure;Samples;Min_cycle;Max_cycle;Signal;HPM_P1;HPM_P2
2023/05/05 00:02:07;;;;;;;6.57;5.97;;;;;;;;;;5064358;28;20503;-77
2023/05/05 00:04:33;;;;;;;6.17;5.23;;;;;;;;;;5065619;28;20762;-77
2023/05/05 00:07:01;;;;;;;7.23;5.70;;;;;;;;;;5066083;28;20504;-78
2023/05/05 00:09:28;;;;;;;8.90;5.30;;;;;;;;;;5066776;28;20511;-77
2023/05/05 00:11:54;;;;;;;8.40;5.87;;;;;;;;;;5066015;28;20515;-77
2023/05/05 00:14:21;;;;;;;9.53;7.10;;;;;;;;;;5066206;28;20516;-77
2023/05/05 00:16:47;;;;;;;11.70;6.40;;;;;;;;;;5070945;28;20500;-78
2023/05/05 00:19:14;;;;;;;9.10;6.20;;;;;;;;;;5066760;28;20520;-78
2023/05/05 00:21:40;;;;;;;12.33;6.30;;;;;;;;;;5067028;28;20530;-78
2023/05/05 00:24:09;;;;;;;11.57;5.70;;;;;;;;;;5072433;28;20903;-75
2023/05/05 00:26:35;;;;;;;7.43;5.97;;;;;;;;;;5063397;28;20514;-76
2023/05/05 00:29:01;;;;;;;7.43;5.20;;;;;;;;;;5070446;28;20453;-76
2023/05/05 00:31:28;;;;;;;8.13;5.27;;;;;;;;;;5071275;28;20483;-75
2023/05/05 00:33:55;;;;;;;10.07;5.93;;;;;;;;;;5070934;28;20902;-77
2023/05/05 00:36:21;;;;;;;10.60;6.20;;;;;;;;;;5067972;28;20479;-76
2023/05/05 00:38:48;;;;;;;7.67;6.03;;;;;;;;;;5067198;28;20492;-76
2023/05/05 00:41:16;;;;;;;9.97;6.43;;;;;;;;;;5063654;28;20493;-76
2023/05/05 00:43:42;;;;;;;12.13;6.20;;;;;;;;;;5073731;28;20468;-76
2023/05/05 00:46:14;;;;;;;8.00;5.83;;;;;;;;;;5067455;28;20520;-77
2023/05/05 00:48:40;;;;;;;11.10;6.87;;;;;;;;;;5069446;28;20481;-77
2023/05/05 00:51:08;;;;;;;11.47;7.10;;;;;;;;;;5074104;28;20472;-77
2023/05/05 00:53:35;;;;;;;8.40;6.60;;;;;;;;;;5069843;28;20480;-77
2023/05/05 00:56:01;;;;;;;12.27;7.07;;;;;;;;;;5076725;28;20472;-76
2023/05/05 00:58:29;;;;;;;9.60;7.57;;;;;;;;;;5073381;28;20487;-77
2023/05/05 01:00:56;;;;;;;11.30;6.57;;;;;;;;;;5070687;28;20507;-77
2023/05/05 01:03:22;;;;;;;15.03;7.97;;;;;;;;;;5063724;28;20542;-76
2023/05/05 01:05:54;;;;;;;14.67;8.60;;;;;;;;;;5067355;28;20465;-77
2023/05/05 01:08:29;;;;;;;10.90;7.80;;;;;;;;;;5063316;28;20704;-77
2023/05/05 01:10:57;;;;;;;18.10;7.93;;;;;;;;;;5063778;28;20487;-75
2023/05/05 01:13:28;;;;;;;12.93;8.10;;;;;;;;;;5062729;28;20537;-77
2023/05/05 01:16:01;;;;;;;11.17;7.50;;;;;;;;;;5068189;28;21035;-77
2023/05/05 01:18:31;;;;;;;9.67;7.60;;;;;;;;;;5055764;28;20548;-77
2023/05/05 01:21:01;;;;;;;13.53;7.30;;;;;;;;;;5057118;28;20488;-76
2023/05/05 01:23:37;;;;;;;11.40;8.00;;;;;;;;;;5063062;28;20484;-77
2023/05/05 01:26:19;;;;;;;10.63;7.33;;;;;;;;;;5064179;28;20899;-77
2023/05/05 01:28:55;;;;;;;9.03;7.40;;;;;;;;;;5061814;28;20464;-77
2023/05/05 01:31:25;;;;;;;10.43;7.10;;;;;;;;;;5062459;28;20476;-77
2023/05/05 01:33:55;;;;;;;9.77;6.90;;;;;;;;;;5066049;28;20560;-77
2023/05/05 01:36:23;;;;;;;10.70;7.87;;;;;;;;;;5065385;28;21031;-77
2023/05/05 01:38:52;;;;;;;7.23;6.43;;;;;;;;;;5065481;28;20491;-76
2023/05/05 01:41:22;;;;;;;10.50;6.60;;;;;;;;;;5061849;28;20485;-77
2023/05/05 01:43:50;;;;;;;11.37;6.67;;;;;;;;;;5063602;28;20461;-77
2023/05/05 01:46:17;;;;;;;10.03;6.57;;;;;;;;;;5064655;28;20555;-77
2023/05/05 01:48:44;;;;;;;10.70;6.77;;;;;;;;;;5062226;28;20932;-76
2023/05/05 01:51:12;;;;;;;7.87;7.07;;;;;;;;;;5062157;28;20972;-77
2023/05/05 01:53:42;;;;;;;10.03;7.13;;;;;;;;;;5062362;28;20480;-76
2023/05/05 01:56:08;;;;;;;8.03;6.80;;;;;;;;;;5073129;28;20473;-76
2023/05/05 01:58:36;;;;;;;14.63;6.37;;;;;;;;;;5065849;28;20496;-76
2023/05/05 02:01:02;;;;;;;10.73;7.20;;;;;;;;;;5061441;28;20495;-77
2023/05/05 02:03:30;;;;;;;10.00;7.80;;;;;;;;;;5065217;28;20457;-77
2023/05/05 02:05:58;;;;;;;10.63;6.60;;;;;;;;;;5066420;28;20504;-77
2023/05/05 02:08:26;;;;;;;11.73;7.40;;;;;;;;;;5065717;28;20567;-76
2023/05/05 02:10:54;;;;;;;7.60;6.50;;;;;;;;;;5066213;28;20476;-77
2023/05/05 02:13:21;;;;;;;11.60;6.50;;;;;;;;;;5065212;28;20533;-77
2023/05/05 02:15:49;;;;;;;8.00;6.20;;;;;;;;;;5064456;28;20899;-76
2023/05/05 02:18:15;;;;;;;9.60;6.10;;;;;;;;;;5069229;28;20979;-77
2023/05/05 02:20:42;;;;;;;7.90;6.73;;;;;;;;;;5065609;28;20475;-77
2023/05/05 02:23:08;;;;;;;8.50;6.63;;;;;;;;;;5065763;28;20448;-77
2023/05/05 02:25:38;;;;;;;9.20;6.10;;;;;;;;;;5060580;28;20476;-76
2023/05/05 02:28:05;;;;;;;8.13;5.87;;;;;;;;;;5063013;28;20529;-76
2023/05/05 02:30:34;;;;;;;7.87;6.70;;;;;;;;;;5062701;28;20496;-76
2023/05/05 02:33:05;;;;;;;10.73;6.47;;;;;;;;;;5062202;28;20504;-77
2023/05/05 02:35:40;;;;;;;6.90;6.00;;;;;;;;;;5073983;28;20480;-77
2023/05/05 02:38:09;;;;;;;10.43;6.10;;;;;;;;;;5052537;28;20468;-77
2023/05/05 02:40:38;;;;;;;10.07;5.93;;;;;;;;;;5064990;28;20480;-77
2023/05/05 02:43:06;;;;;;;6.17;5.57;;;;;;;;;;5062548;28;20495;-77
2023/05/05 02:45:32;;;;;;;8.30;5.83;;;;;;;;;;5064656;28;20465;-77
2023/05/05 02:48:01;;;;;;;7.53;5.70;;;;;;;;;;5061930;28;20481;-77
2023/05/05 02:50:28;;;;;;;8.30;5.80;;;;;;;;;;5062876;28;20500;-77
2023/05/05 02:52:54;;;;;;;8.43;6.47;;;;;;;;;;5066005;28;20873;-77
2023/05/05 02:55:21;;;;;;;6.60;5.30;;;;;;;;;;5060152;28;21201;-75
2023/05/05 02:57:51;;;;;;;9.67;6.40;;;;;;;;;;5061589;28;20476;-75
2023/05/05 03:00:20;;;;;;;7.87;5.60;;;;;;;;;;5065552;28;20476;-76
2023/05/05 03:02:52;;;;;;;10.90;6.20;;;;;;;;;;5067246;28;20453;-76
2023/05/05 03:05:21;;;;;;;7.23;5.80;;;;;;;;;;5064733;28;20481;-75
2023/05/05 03:07:53;;;;;;;8.67;6.70;;;;;;;;;;5065417;28;21091;-76
2023/05/05 03:10:20;;;;;;;7.57;6.13;;;;;;;;;;5064941;28;20467;-76
2023/05/05 03:12:52;;;;;;;7.30;5.90;;;;;;;;;;5068226;28;20448;-76
2023/05/05 03:15:19;;;;;;;7.83;6.97;;;;;;;;;;5055754;28;20512;-75
2023/05/05 03:17:46;;;;;;;8.53;6.17;;;;;;;;;;5065649;28;20449;-76
2023/05/05 03:20:14;;;;;;;7.10;6.30;;;;;;;;;;5064782;28;20496;-75
2023/05/05 03:22:40;;;;;;;6.63;6.00;;;;;;;;;;5065956;28;20452;-75
2023/05/05 03:25:07;;;;;;;12.10;6.50;;;;;;;;;;5068709;28;20510;-75
2023/05/05 03:27:34;;;;;;;7.93;6.43;;;;;;;;;;5073637;28;20476;-76
2023/05/05 03:30:01;;;;;;;8.40;6.17;;;;;;;;;;5068118;28;20465;-76
2023/05/05 03:32:29;;;;;;;9.27;6.80;;;;;;;;;;5064636;28;20504;-76
2023/05/05 03:34:56;;;;;;;8.17;5.97;;;;;;;;;;5067677;28;20495;-76
2023/05/05 03:37:22;;;;;;;6.70;6.10;;;;;;;;;;5068637;28;20487;-75
2023/05/05 03:39:49;;;;;;;9.63;5.83;;;;;;;;;;5077974;28;20495;-76
2023/05/05 03:42:15;;;;;;;7.70;6.20;;;;;;;;;;5064889;28;20510;-77
2023/05/05 03:44:41;;;;;;;10.33;7.07;;;;;;;;;;5061736;28;20449;-77
2023/05/05 03:47:09;;;;;;;7.27;6.53;;;;;;;;;;5064508;28;20507;-77
2023/05/05 03:49:36;;;;;;;6.83;6.13;;;;;;;;;;5074321;28;20488;-77
2023/05/05 03:52:03;;;;;;;8.03;5.57;;;;;;;;;;5065938;28;20484;-79
2023/05/05 03:54:30;;;;;;;7.63;5.97;;;;;;;;;;5072196;28;20456;-77
2023/05/05 03:56:57;;;;;;;7.47;6.03;;;;;;;;;;5073666;28;20480;-77
2023/05/05 03:59:23;;;;;;;8.33;6.07;;;;;;;;;;5074867;28;20855;-77
2023/05/05 04:01:49;;;;;;;9.83;6.50;;;;;;;;;;5066348;28;20484;-77
2023/05/05 04:04:17;;;;;;;9.00;6.77;;;;;;;;;;5070264;28;20442;-77
2023/05/05 04:06:44;;;;;;;7.07;6.33;;;;;;;;;;5063541;28;20984;-77
2023/05/05 04:09:10;;;;;;;6.67;5.90;;;;;;;;;;5061384;28;20485;-77
2023/05/05 04:11:37;;;;;;;10.83;6.13;;;;;;;;;;5065223;28;20511;-77
2023/05/05 04:14:03;;;;;;;9.53;6.10;;;;;;;;;;5066170;28;20468;-77
2023/05/05 04:16:30;;;;;;;7.30;5.80;;;;;;;;;;5069236;28;20508;-77
2023/05/05 04:18:57;;;;;;;9.80;6.40;;;;;;;;;;5062551;28;20455;-78
2023/05/05 04:21:24;;;;;;;9.70;6.67;;;;;;;;;;5061001;28;20504;-78
2023/05/05 04:23:51;;;;;;;11.90;8.80;;;;;;;;;;5064289;28;20448;-78
2023/05/05 04:26:18;;;;;;;10.33;6.40;;;;;;;;;;5062885;28;20871;-78
2023/05/05 04:28:44;;;;;;;8.30;6.60;;;;;;;;;;5063482;28;20463;-77
2023/05/05 04:31:11;;;;;;;7.20;6.43;;;;;;;;;;5064501;28;20484;-79
2023/05/05 04:33:37;;;;;;;9.40;6.30;;;;;;;;;;5072670;28;20502;-78
2023/05/05 04:36:04;;;;;;;6.93;6.23;;;;;;;;;;5059380;28;20964;-79
2023/05/05 04:38:32;;;;;;;7.40;6.40;;;;;;;;;;5067853;28;20456;-82
2023/05/05 04:40:58;;;;;;;7.27;6.00;;;;;;;;;;5066150;28;20484;-81
2023/05/05 04:43:25;;;;;;;8.00;6.50;;;;;;;;;;5061463;28;20484;-80
2023/05/05 04:45:52;;;;;;;14.43;7.00;;;;;;;;;;5069190;28;20915;-80
2023/05/05 04:48:19;;;;;;;12.00;7.70;;;;;;;;;;5064501;28;20448;-81
2023/05/05 04:50:46;;;;;;;17.10;7.70;;;;;;;;;;5065249;28;20493;-81
2023/05/05 04:53:12;;;;;;;11.00;8.03;;;;;;;;;;5066542;28;20481;-80
2023/05/05 04:55:40;;;;;;;13.33;7.87;;;;;;;;;;5062216;28;20483;-81
2023/05/05 04:58:06;;;;;;;8.83;7.50;;;;;;;;;;5061139;28;20895;-81
2023/05/05 05:00:33;;;;;;;11.60;6.70;;;;;;;;;;5061841;28;20496;-81
2023/05/05 05:02:59;;;;;;;13.70;7.10;;;;;;;;;;5064996;28;20452;-81
2023/05/05 05:05:26;;;;;;;12.07;7.00;;;;;;;;;;5061125;28;21635;-81
2023/05/05 05:07:52;;;;;;;11.83;6.57;;;;;;;;;;5064139;28;20522;-81
2023/05/05 05:10:18;;;;;;;7.70;6.23;;;;;;;;;;5058461;28;20484;-78
2023/05/05 05:12:48;;;;;;;7.07;6.33;;;;;;;;;;5067880;28;20459;-80
2023/05/05 05:15:15;;;;;;;10.10;5.80;;;;;;;;;;5069110;28;20472;-79
2023/05/05 05:17:41;;;;;;;7.27;5.87;;;;;;;;;;5073873;28;20448;-78
2023/05/05 05:20:08;;;;;;;10.37;6.07;;;;;;;;;;5056471;28;20485;-79
2023/05/05 05:22:37;;;;;;;8.37;5.53;;;;;;;;;;5060235;28;20514;-79
2023/05/05 05:25:03;;;;;;;9.03;5.73;;;;;;;;;;5064191;28;20552;-79
2023/05/05 05:27:30;;;;;;;7.73;5.00;;;;;;;;;;5060591;28;20441;-79
2023/05/05 05:29:58;;;;;;;8.13;5.20;;;;;;;;;;5060968;28;20460;-78
2023/05/05 05:32:24;;;;;;;6.03;5.50;;;;;;;;;;5061915;28;20473;-78
2023/05/05 05:34:50;;;;;;;13.80;7.60;;;;;;;;;;5065705;28;20508;-78
2023/05/05 05:37:17;;;;;;;9.00;6.07;;;;;;;;;;5059351;28;20472;-78
2023/05/05 05:39:43;;;;;;;12.13;7.93;;;;;;;;;;5060245;28;20441;-78
2023/05/05 05:42:10;;;;;;;10.07;8.03;;;;;;;;;;5061438;28;20515;-78
2023/05/05 05:44:36;;;;;;;12.20;8.50;;;;;;;;;;5056618;28;20464;-76
2023/05/05 05:47:04;;;;;;;10.47;8.20;;;;;;;;;;5060972;28;20476;-78
2023/05/05 05:49:30;;;;;;;15.97;8.60;;;;;;;;;;5061442;28;20830;-78
2023/05/05 05:51:57;;;;;;;11.10;9.90;;;;;;;;;;5064325;28;20524;-79
2023/05/05 05:54:23;;;;;;;13.30;11.23;;;;;;;;;;5061906;28;20510;-78
2023/05/05 05:56:50;;;;;;;15.23;10.13;;;;;;;;;;5067815;28;20515;-77
2023/05/05 05:59:16;;;;;;;16.87;10.87;;;;;;;;;;5060586;28;20460;-78
2023/05/05 06:01:43;;;;;;;12.30;11.00;;;;;;;;;;5059581;28;20491;-78
2023/05/05 06:04:12;;;;;;;14.00;10.90;;;;;;;;;;5061153;28;20449;-79
2023/05/05 06:06:38;;;;;;;13.60;11.83;;;;;;;;;;5066420;28;20554;-79
2023/05/05 06:09:04;;;;;;;16.50;12.27;;;;;;;;;;5061139;28;20526;-78
2023/05/05 06:11:31;;;;;;;16.37;11.77;;;;;;;;;;5062897;28;20516;-79
2023/05/05 06:13:58;;;;;;;11.53;10.33;;;;;;;;;;5060307;28;20490;-80
2023/05/05 06:16:24;;;;;;;13.93;11.60;;;;;;;;;;5052117;28;20539;-79
2023/05/05 06:18:51;;;;;;;12.00;10.73;;;;;;;;;;5057656;28;20448;-81
2023/05/05 06:21:19;;;;;;;13.43;11.10;;;;;;;;;;5059040;28;20468;-80
2023/05/05 06:23:46;;;;;;;12.57;10.53;;;;;;;;;;5059603;28;20445;-80
2023/05/05 06:26:12;;;;;;;11.63;10.00;;;;;;;;;;5062877;28;20507;-80
2023/05/05 06:28:40;;;;;;;11.47;10.27;;;;;;;;;;5062185;28;20507;-81
2023/05/05 06:31:06;;;;;;;11.33;10.13;;;;;;;;;;5060643;28;21031;-80
2023/05/05 06:33:33;;;;;;;14.10;9.50;;;;;;;;;;5060331;28;20445;-80
2023/05/05 06:35:59;;;;;;;13.00;10.07;;;;;;;;;;5060282;28;20507;-80
2023/05/05 06:38:27;;;;;;;10.20;8.10;;;;;;;;;;5068673;28;21015;-79
2023/05/05 06:40:53;;;;;;;13.87;10.07;;;;;;;;;;5059594;28;20501;-79
2023/05/05 06:43:20;;;;;;;11.60;9.07;;;;;;;;;;5066760;28;20453;-80
2023/05/05 06:45:47;;;;;;;10.67;9.03;;;;;;;;;;5063210;28;20493;-80
2023/05/05 06:48:13;;;;;;;12.43;8.67;;;;;;;;;;5060733;28;20445;-80
2023/05/05 06:50:40;;;;;;;14.83;9.70;;;;;;;;;;5062048;28;20476;-80
2023/05/05 06:53:06;;;;;;;12.00;10.13;;;;;;;;;;5061599;28;20448;-80
2023/05/05 06:55:34;;;;;;;12.20;10.40;;;;;;;;;;5057164;28;20488;-80
2023/05/05 06:58:01;;;;;;;16.57;10.33;;;;;;;;;;5062690;28;20457;-79
2023/05/05 07:00:27;;;;;;;12.30;10.40;;;;;;;;;;5060617;28;20468;-80
2023/05/05 07:02:57;;;;;;;11.20;10.20;;;;;;;;;;5057681;28;20441;-81
2023/05/05 07:05:25;;;;;;;12.13;10.53;;;;;;;;;;5065272;28;20463;-81
2023/05/05 07:07:54;;;;;;;16.03;11.30;;;;;;;;;;5060623;28;20489;-83
2023/05/05 07:10:21;;;;;;;15.17;11.30;;;;;;;;;;5058446;28;20488;-81
2023/05/05 07:12:49;;;;;;;14.10;12.63;;;;;;;;;;5056637;28;20473;-81
2023/05/05 07:15:17;;;;;;;18.83;11.93;;;;;;;;;;5058429;28;20475;-81
2023/05/05 07:17:43;;;;;;;15.13;11.90;;;;;;;;;;5058271;28;20483;-81
2023/05/05 07:20:10;;;;;;;12.60;11.17;;;;;;;;;;5058403;28;20914;-81
2023/05/05 07:22:37;;;;;;;12.50;11.20;;;;;;;;;;5057744;28;20449;-82
2023/05/05 07:25:04;;;;;;;13.60;11.43;;;;;;;;;;5061358;28;20448;-81
2023/05/05 07:27:31;;;;;;;14.50;13.07;;;;;;;;;;5060921;28;20500;-81
2023/05/05 07:29:59;;;;;;;13.47;12.13;;;;;;;;;;5056074;28;20472;-80
2023/05/05 07:32:26;;;;;;;13.87;10.97;;;;;;;;;;5060447;28;20477;-81
2023/05/05 07:34:52;;;;;;;13.17;11.37;;;;;;;;;;5059076;28;20479;-79
2023/05/05 07:37:19;;;;;;;13.37;10.90;;;;;;;;;;5056162;28;21059;-81
2023/05/05 07:39:46;;;;;;;12.67;10.73;;;;;;;;;;5057150;28;20491;-81
2023/05/05 07:42:12;;;;;;;15.93;11.80;;;;;;;;;;5057470;28;20512;-82
2023/05/05 07:44:39;;;;;;;19.13;11.70;;;;;;;;;;5057422;28;20465;-80
2023/05/05 07:47:07;;;;;;;17.43;11.50;;;;;;;;;;5062801;28;20477;-80
2023/05/05 07:49:33;;;;;;;15.53;13.00;;;;;;;;;;5059853;28;20482;-80
2023/05/05 07:52:00;;;;;;;15.60;11.30;;;;;;;;;;5060107;28;20481;-79
2023/05/05 07:54:27;;;;;;;13.67;12.10;;;;;;;;;;5056263;28;20457;-80
2023/05/05 07:56:54;;;;;;;13.33;12.13;;;;;;;;;;5058827;28;20555;-81
2023/05/05 07:59:20;;;;;;;14.27;12.93;;;;;;;;;;5061346;28;20576;-80
2023/05/05 08:01:47;;;;;;;16.53;12.67;;;;;;;;;;5058654;28;20534;-81
2023/05/05 08:04:31;;;;;;;13.17;11.50;;;;;;;;;;5062100;28;20441;-81
2023/05/05 08:06:57;;;;;;;13.70;12.30;;;;;;;;;;5059899;28;20473;-81
2023/05/05 08:09:24;;;;;;;14.77;12.33;;;;;;;;;;5059541;28;20479;-79
2023/05/05 08:11:50;;;;;;;15.23;13.60;;;;;;;;;;5060736;28;20492;-82
2023/05/05 08:14:17;;;;;;;15.27;13.13;;;;;;;;;;5049328;28;20473;-81
2023/05/05 08:16:43;;;;;;;15.17;13.50;;;;;;;;;;5058557;28;20473;-82
2023/05/05 08:19:10;;;;;;;14.57;13.00;;;;;;;;;;5061849;28;20464;-82
2023/05/05 08:21:38;;;;;;;17.00;13.57;;;;;;;;;;5059637;28;20477;-81
2023/05/05 08:24:04;;;;;;;13.80;12.40;;;;;;;;;;5058347;28;20467;-81
2023/05/05 08:26:31;;;;;;;16.17;13.30;;;;;;;;;;5061354;28;20479;-80
2023/05/05 08:28:59;;;;;;;17.60;14.47;;;;;;;;;;5059612;28;20457;-83
2023/05/05 08:31:26;;;;;;;14.63;13.13;;;;;;;;;;5057326;28;20476;-80
2023/05/05 08:33:52;;;;;;;17.23;14.53;;;;;;;;;;5061111;28;20448;-80
2023/05/05 08:36:19;;;;;;;15.63;13.80;;;;;;;;;;5060572;28;20477;-79
2023/05/05 08:38:47;;;;;;;17.40;13.90;;;;;;;;;;5061384;28;20456;-80
2023/05/05 08:41:16;;;;;;;14.93;13.40;;;;;;;;;;5063421;28;20483;-82
2023/05/05 08:43:43;;;;;;;15.93;14.17;;;;;;;;;;5062522;28;20996;-81
2023/05/05 08:46:11;;;;;;;15.70;14.10;;;;;;;;;;5061691;28;20472;-81
2023/05/05 08:48:40;;;;;;;15.60;14.00;;;;;;;;;;5063108;28;20481;-81
2023/05/05 08:51:07;;;;;;;16.00;14.30;;;;;;;;;;5062220;28;20841;-81
2023/05/05 08:53:39;;;;;;;15.50;14.00;;;;;;;;;;5064698;28;20855;-81
2023/05/05 08:56:07;;;;;;;14.33;12.83;;;;;;;;;;5059399;28;20987;-82
2023/05/05 08:58:36;;;;;;;15.23;13.73;;;;;;;;;;5061693;28;20947;-80
2023/05/05 09:01:03;;;;;;;15.60;14.00;;;;;;;;;;5060311;28;20477;-80
2023/05/05 09:03:31;;;;;;;15.80;14.37;;;;;;;;;;5071383;28;20452;-80
2023/05/05 09:05:58;;;;;;;14.43;12.93;;;;;;;;;;5062818;28;20479;-79
2023/05/05 09:08:25;;;;;;;15.00;13.60;;;;;;;;;;5067828;28;20484;-82
2023/05/05 09:10:52;;;;;;;16.00;14.47;;;;;;;;;;5067971;28;20479;-81
2023/05/05 09:13:19;;;;;;;15.20;13.70;;;;;;;;;;5062075;28;20448;-79
2023/05/05 09:15:46;;;;;;;15.67;14.00;;;;;;;;;;5063110;28;20472;-81
2023/05/05 09:18:13;;;;;;;17.20;13.70;;;;;;;;;;5059490;28;20480;-82
2023/05/05 09:20:40;;;;;;;17.13;15.47;;;;;;;;;;5059907;28;20472;-79
2023/05/05 09:23:07;;;;;;;16.93;15.23;;;;;;;;;;5060097;28;20488;-81
2023/05/05 09:25:34;;;;;;;16.77;14.40;;;;;;;;;;5068637;28;20464;-81
2023/05/05 09:28:07;;;;;;;16.07;13.93;;;;;;;;;;5062010;28;20449;-79
2023/05/05 09:30:35;;;;;;;19.13;13.83;;;;;;;;;;5053941;28;20465;-80
2023/05/05 09:33:02;;;;;;;14.60;12.97;;;;;;;;;;5068898;28;20483;-81
2023/05/05 09:35:28;;;;;;;16.60;14.50;;;;;;;;;;5068017;28;20483;-83
2023/05/05 09:37:55;;;;;;;17.77;15.97;;;;;;;;;;5064197;28;21182;-79
2023/05/05 09:40:21;;;;;;;15.97;14.43;;;;;;;;;;5064605;28;20468;-81
2023/05/05 09:42:48;;;;;;;16.37;14.80;;;;;;;;;;5063694;28;20457;-80
2023/05/05 09:45:27;;;;;;;15.90;14.30;;;;;;;;;;5059836;28;20460;-81
2023/05/05 09:47:57;;;;;;;15.50;13.07;;;;;;;;;;5060616;28;20445;-82
2023/05/05 09:50:23;;;;;;;15.90;14.40;;;;;;;;;;5059392;28;20475;-82
2023/05/05 09:52:59;;;;;;;18.83;13.77;;;;;;;;;;5065342;28;20452;-80
2023/05/05 09:55:25;;;;;;;16.27;14.57;;;;;;;;;;5060488;28;20515;-80
2023/05/05 09:57:52;;;;;;;16.07;14.47;;;;;;;;;;5062305;28;20535;-81
2023/05/05 10:00:19;;;;;;;16.90;14.70;;;;;;;;;;5059450;28;20460;-82
2023/05/05 10:02:46;;;;;;;15.20;13.83;;;;;;;;;;5059692;28;20457;-80
2023/05/05 10:05:15;;;;;;;15.23;13.63;;;;;;;;;;5059916;28;20461;-81
2023/05/05 10:07:41;;;;;;;18.27;14.77;;;;;;;;;;5056522;28;20485;-81
2023/05/05 10:10:08;;;;;;;14.20;12.80;;;;;;;;;;5064640;28;20452;-82
2023/05/05 10:12:36;;;;;;;21.27;13.90;;;;;;;;;;5060486;28;20487;-82
2023/05/05 10:15:03;;;;;;;14.20;12.00;;;;;;;;;;5062227;28;20456;-79
2023/05/05 10:17:31;;;;;;;17.57;12.20;;;;;;;;;;5060627;28;20573;-79
2023/05/05 10:19:58;;;;;;;11.50;10.47;;;;;;;;;;5057749;28;20456;-80
2023/05/05 10:22:28;;;;;;;12.23;11.13;;;;;;;;;;5061178;28;20481;-80
2023/05/05 10:24:57;;;;;;;12.50;11.40;;;;;;;;;;5061139;28;20445;-80
2023/05/05 10:27:25;;;;;;;15.17;13.53;;;;;;;;;;5058175;28;20465;-81
2023/05/05 10:29:55;;;;;;;14.33;13.13;;;;;;;;;;5058781;28;20465;-80
2023/05/05 10:32:25;;;;;;;11.40;10.27;;;;;;;;;;5064049;28;20508;-80
2023/05/05 10:34:54;;;;;;;10.00;8.90;;;;;;;;;;5059095;28;20528;-80
2023/05/05 10:37:21;;;;;;;10.07;8.40;;;;;;;;;;5059410;28;20499;-81
2023/05/05 10:39:50;;;;;;;9.20;6.40;;;;;;;;;;5065620;28;20468;-80
2023/05/05 10:42:17;;;;;;;6.87;6.27;;;;;;;;;;5060395;28;20556;-81
2023/05/05 10:44:43;;;;;;;6.80;6.20;;;;;;;;;;5058429;28;20918;-81
2023/05/05 10:47:10;;;;;;;7.00;5.40;;;;;;;;;;5060739;28;20481;-81
2023/05/05 10:49:40;;;;;;;6.53;5.50;;;;;;;;;;5060977;28;20956;-81
2023/05/05 10:52:12;;;;;;;6.87;5.43;;;;;;;;;;5058958;28;20923;-81
2023/05/05 10:54:43;;;;;;;6.97;4.07;;;;;;;;;;5058204;28;20484;-84
2023/05/05 10:57:11;;;;;;;5.77;5.17;;;;;;;;;;5057473;28;20473;-82
2023/05/05 10:59:42;;;;;;;6.57;5.40;;;;;;;;;;5060272;28;20460;-82
2023/05/05 11:02:18;;;;;;;6.90;6.30;;;;;;;;;;5059862;28;20465;-83
2023/05/05 11:05:02;;;;;;;7.97;7.03;;;;;;;;;;5060703;28;20453;-81
2023/05/05 11:07:29;;;;;;;8.27;6.53;;;;;;;;;;5055691;28;20488;-80
2023/05/05 11:10:00;;;;;;;15.23;6.87;;;;;;;;;;5060729;28;20453;-81
2023/05/05 11:12:28;;;;;;;6.50;5.90;;;;;;;;;;5060598;28;20516;-82
2023/05/05 11:15:13;;;;;;;7.37;6.10;;;;;;;;;;5063769;28;20481;-83
2023/05/05 11:17:46;;;;;;;7.00;6.30;;;;;;;;;;5064018;28;20460;-82
2023/05/05 11:20:13;;;;;;;6.30;5.30;;;;;;;;;;5062817;28;20464;-82
2023/05/05 11:22:54;;;;;;;4.17;3.77;;;;;;;;;;5065290;28;20472;-82
2023/05/05 11:25:35;;;;;;;5.40;4.87;;;;;;;;;;5062627;28;20480;-81
2023/05/05 11:28:06;;;;;;;8.10;4.77;;;;;;;;;;5060753;28;21214;-82
2023/05/05 11:30:33;;;;;;;5.10;4.20;;;;;;;;;;5063141;28;20611;-83
2023/05/05 11:33:18;;;;;;;4.23;3.40;;;;;;;;;;5066040;28;20484;-82
2023/05/05 11:35:54;;;;;;;3.97;3.67;;;;;;;;;;5063600;28;20476;-81
2023/05/05 11:38:21;;;;;;;4.47;4.07;;;;;;;;;;5069917;28;20502;-82
2023/05/05 11:40:49;;;;;;;2.50;2.30;;;;;;;;;;5062450;28;20488;-82
2023/05/05 11:43:20;;;;;;;3.97;3.17;;;;;;;;;;5064574;28;20460;-82
2023/05/05 11:45:46;;;;;;;3.33;2.70;;;;;;;;;;5059470;28;20464;-84
2023/05/05 11:48:25;;;;;;;4.00;3.00;;;;;;;;;;5064200;28;20456;-82
2023/05/05 11:50:51;;;;;;;3.40;3.10;;;;;;;;;;5062762;28;20555;-82
2023/05/05 11:53:18;;;;;;;3.07;2.60;;;;;;;;;;5065117;28;20482;-83
2023/05/05 11:55:45;;;;;;;4.50;3.27;;;;;;;;;;5064917;28;20783;-83
2023/05/05 11:58:18;;;;;;;3.73;2.90;;;;;;;;;;5065146;28;20476;-83
2023/05/05 12:00:46;;;;;;;3.77;3.47;;;;;;;;;;5076827;28;20506;-84
2023/05/05 12:03:13;;;;;;;3.97;3.60;;;;;;;;;;5069419;28;20455;-83
2023/05/05 12:05:40;;;;;;;5.33;4.60;;;;;;;;;;5072452;28;20483;-83
2023/05/05 12:08:06;;;;;;;3.43;3.13;;;;;;;;;;5063970;28;20488;-82
2023/05/05 12:10:33;;;;;;;5.13;3.77;;;;;;;;;;5063122;28;20480;-82
2023/05/05 12:12:59;;;;;;;4.17;3.27;;;;;;;;;;5060075;28;20460;-82
2023/05/05 12:15:30;;;;;;;4.77;4.37;;;;;;;;;;5070359;28;20456;-81
2023/05/05 12:17:58;;;;;;;7.63;4.40;;;;;;;;;;5063596;28;20540;-82
2023/05/05 12:20:32;;;;;;;4.70;4.20;;;;;;;;;;5063888;28;20460;-82
2023/05/05 12:23:02;;;;;;;6.20;4.10;;;;;;;;;;5067719;28;20491;-86
2023/05/05 12:25:35;;;;;;;5.20;4.00;;;;;;;;;;5067167;28;20543;-82
2023/05/05 12:28:01;;;;;;;5.70;4.80;;;;;;;;;;5069679;28;21164;-82
2023/05/05 12:30:28;;;;;;;8.10;4.07;;;;;;;;;;5069048;28;20472;-83
2023/05/05 12:33:02;;;;;;;4.90;4.40;;;;;;;;;;5073244;28;20995;-82
2023/05/05 12:35:29;;;;;;;4.57;4.17;;;;;;;;;;5052240;28;20476;-82
2023/05/05 12:37:55;;;;;;;6.43;4.10;;;;;;;;;;5063646;28;20883;-82
2023/05/05 12:40:40;;;;;;;7.00;4.33;;;;;;;;;;5066826;28;20487;-83
2023/05/05 12:43:07;;;;;;;5.90;4.47;;;;;;;;;;5062084;28;20449;-83
2023/05/05 12:45:33;;;;;;;4.30;3.87;;;;;;;;;;5067435;28;20474;-81
2023/05/05 12:48:00;;;;;;;4.00;3.10;;;;;;;;;;5066983;28;20475;-83
2023/05/05 12:50:31;;;;;;;5.80;3.73;;;;;;;;;;5070271;28;20468;-85
2023/05/05 12:52:58;;;;;;;4.23;2.93;;;;;;;;;;5062852;28;20531;-84
2023/05/05 12:55:35;;;;;;;3.53;3.07;;;;;;;;;;5060608;28;20484;-82
2023/05/05 12:58:03;;;;;;;3.30;3.00;;;;;;;;;;5068920;28;21027;-82
2023/05/05 13:00:30;;;;;;;6.30;3.33;;;;;;;;;;5065267;28;20463;-84
2023/05/05 13:02:57;;;;;;;7.43;4.10;;;;;;;;;;5072615;28;20456;-83
2023/05/05 13:05:32;;;;;;;4.00;3.53;;;;;;;;;;5064065;28;20455;-82
2023/05/05 13:07:58;;;;;;;7.20;3.73;;;;;;;;;;5066934;28;20507;-83
2023/05/05 13:10:25;;;;;;;3.60;2.70;;;;;;;;;;5067186;28;20453;-84
2023/05/05 13:12:55;;;;;;;3.60;2.40;;;;;;;;;;5062955;28;20937;-84
2023/05/05 13:15:21;;;;;;;2.63;2.43;;;;;;;;;;5071379;28;20551;-83
2023/05/05 13:17:48;;;;;;;3.80;2.70;;;;;;;;;;5068295;28;20489;-83
2023/05/05 13:20:14;;;;;;;4.07;3.77;;;;;;;;;;5069978;28;20456;-83
2023/05/05 13:22:42;;;;;;;4.10;3.70;;;;;;;;;;5062837;28;20456;-84
2023/05/05 13:25:09;;;;;;;4.30;3.90;;;;;;;;;;5066724;28;20461;-83
2023/05/05 13:27:36;;;;;;;5.23;4.70;;;;;;;;;;5064182;28;21023;-84
2023/05/05 13:30:03;;;;;;;4.43;4.03;;;;;;;;;;5069500;28;20531;-80
2023/05/05 13:32:29;;;;;;;4.87;4.30;;;;;;;;;;5062307;28;20477;-81
2023/05/05 13:34:56;;;;;;;6.30;4.43;;;;;;;;;;5061469;28;20460;-84
2023/05/05 13:37:23;;;;;;;5.83;5.23;;;;;;;;;;5058152;28;20540;-82
2023/05/05 13:39:51;;;;;;;5.60;5.10;;;;;;;;;;5061275;28;20469;-81
2023/05/05 13:42:17;;;;;;;5.37;4.60;;;;;;;;;;5066116;28;20515;-84
2023/05/05 13:44:44;;;;;;;6.10;4.70;;;;;;;;;;5062752;28;20467;-80
2023/05/05 13:47:10;;;;;;;4.63;4.20;;;;;;;;;;5060715;28;20647;-81
2023/05/05 13:49:37;;;;;;;4.30;3.90;;;;;;;;;;5069957;28;20450;-82
2023/05/05 13:52:04;;;;;;;4.40;3.87;;;;;;;;;;5071511;28;21031;-85
2023/05/05 13:54:31;;;;;;;5.50;4.07;;;;;;;;;;5068476;28;20459;-82
2023/05/05 13:56:59;;;;;;;5.47;4.27;;;;;;;;;;5063469;28;20480;-85
2023/05/05 13:59:26;;;;;;;4.63;3.53;;;;;;;;;;5068521;28;20510;-82
2023/05/05 14:01:52;;;;;;;4.90;3.87;;;;;;;;;;5060981;28;20486;-84
2023/05/05 14:04:19;;;;;;;4.13;3.27;;;;;;;;;;5076193;28;20451;-85
2023/05/05 14:06:45;;;;;;;4.60;3.60;;;;;;;;;;5066319;28;20499;-84
2023/05/05 14:09:12;;;;;;;5.93;3.80;;;;;;;;;;5063283;28;20480;-83
2023/05/05 14:11:38;;;;;;;5.20;4.00;;;;;;;;;;5061113;28;21038;-85
2023/05/05 14:14:07;;;;;;;6.00;3.77;;;;;;;;;;5060914;28;20454;-80
2023/05/05 14:16:34;;;;;;;4.83;3.97;;;;;;;;;;5052885;28;20904;-85
2023/05/05 14:19:00;;;;;;;8.53;3.73;;;;;;;;;;5060028;28;20527;-84
2023/05/05 14:21:27;;;;;;;4.13;3.47;;;;;;;;;;5057878;28;20927;-83
2023/05/05 14:23:54;;;;;;;4.50;3.70;;;;;;;;;;5050560;28;20496;-84
2023/05/05 14:26:20;;;;;;;4.57;4.07;;;;;;;;;;5058095;28;20464;-82
2023/05/05 14:28:47;;;;;;;4.73;3.40;;;;;;;;;;5050214;28;20465;-84
2023/05/05 14:31:15;;;;;;;6.50;3.93;;;;;;;;;;5059992;28;20477;-85
2023/05/05 14:33:41;;;;;;;5.90;3.63;;;;;;;;;;5051628;28;20466;-81
2023/05/05 14:36:08;;;;;;;4.57;3.77;;;;;;;;;;5053953;28;20476;-83
2023/05/05 14:38:35;;;;;;;4.40;3.00;;;;;;;;;;5057376;28;20492;-83